Time;durP1;ratioP1;P1;durP2;ratioP2;P2;SDS_P1;SDS_P2;PMS_P1;PMS_P2;Temp;Humidity;BMP_temperature;BMP_pressure;BME280_temperature;BME280_humidity;BME280_pressure;Samples;Min_cycle;Max_cycle;Signal;HPM_P1;HPM_P2
2021/03/04 00:01:55;;;;;;;41.97;20.00;;;;;;;4.08;85.23;101570.64;123226;1105;64857;-79
2021/03/04 00:04:21;;;;;;;46.83;24.67;;;;;;;4.05;84.98;101568.22;124339;1105;64972;-77
2021/03/04 00:06:47;;;;;;;56.70;29.05;;;;;;;4.02;86.84;101568.45;123260;1105;64985;-79
2021/03/04 00:09:13;;;;;;;45.92;21.25;;;;;;;4.02;87.79;101568.45;123479;1105;64991;-78
2021/03/04 00:11:39;;;;;;;43.67;19.00;;;;;;;4.04;88.18;101563.09;123358;1105;64994;-78
2021/03/04 00:14:05;;;;;;;62.50;31.50;;;;;;;4.05;87.70;101562.97;123407;1105;65558;-78
2021/03/04 00:16:31;;;;;;;57.57;26.40;;;;;;;4.06;88.44;101562.03;123403;1105;64959;-78
2021/03/04 00:18:58;;;;;;;48.40;21.25;;;;;;;4.07;88.36;101566.32;123415;1105;64853;-78
2021/03/04 00:21:24;;;;;;;71.87;33.80;;;;;;;4.07;88.34;101547.94;123277;1105;65705;-79
2021/03/04 00:23:50;;;;;;;30.30;14.87;;;;;;;4.11;89.41;101547.73;123476;1105;64898;-79
2021/03/04 00:26:17;;;;;;;55.60;26.23;;;;;;;4.13;88.31;101551.91;123460;1105;64965;-78
2021/03/04 00:28:43;;;;;;;40.63;19.13;;;;;;;4.13;88.59;101554.55;123419;1105;64870;-79
2021/03/04 00:31:09;;;;;;;52.73;22.83;;;;;;;4.11;88.86;101548.56;123496;1105;65001;-78
2021/03/04 00:33:36;;;;;;;45.60;22.63;;;;;;;4.12;88.42;101549.39;123370;1105;64995;-78
2021/03/04 00:36:02;;;;;;;53.37;26.20;;;;;;;4.13;88.67;101535.33;123436;1105;64991;-78
2021/03/04 00:38:28;;;;;;;41.60;19.77;;;;;;;4.14;87.28;101534.37;124063;1105;65688;-77
2021/03/04 00:40:54;;;;;;;68.93;32.67;;;;;;;4.15;87.63;101530.81;123396;1105;64901;-79
2021/03/04 00:43:20;;;;;;;63.97;26.93;;;;;;;4.15;87.08;101528.19;123425;1105;65905;-78
2021/03/04 00:45:46;;;;;;;49.20;25.03;;;;;;;4.14;88.10;101527.32;123545;1105;65055;-78
2021/03/04 00:48:13;;;;;;;52.00;24.60;;;;;;;4.13;87.31;101520.41;123373;1106;65067;-77
2021/03/04 00:50:39;;;;;;;64.40;29.70;;;;;;;4.14;86.97;101526.48;123499;1104;64902;-79
2021/03/04 00:53:06;;;;;;;64.40;27.33;;;;;;;4.11;87.86;101527.56;123477;1106;65413;-79
2021/03/04 00:55:33;;;;;;;59.17;25.03;;;;;;;4.09;87.98;101530.28;123427;1105;65886;-77
2021/03/04 00:57:59;;;;;;;62.17;28.33;;;;;;;4.07;86.36;101533.98;123396;1105;65682;-78
2021/03/04 01:00:26;;;;;;;63.27;30.70;;;;;;;4.08;86.29;101528.63;123464;1105;64940;-79
2021/03/04 01:02:53;;;;;;;51.53;23.90;;;;;;;4.05;87.52;101528.83;123501;1105;64934;-78
2021/03/04 01:05:19;;;;;;;56.43;25.97;;;;;;;4.03;86.98;101535.98;123410;1105;65251;-79
2021/03/04 01:07:45;;;;;;;49.70;22.63;;;;;;;4.02;87.37;101529.07;123429;1105;64895;-79
2021/03/04 01:10:15;;;;;;;52.10;22.63;;;;;;;3.99;87.51;101523.20;123464;1105;65709;-78
2021/03/04 01:12:41;;;;;;;45.37;18.50;;;;;;;3.96;87.42;101534.77;123427;1105;64926;-76
2021/03/04 01:15:13;;;;;;;40.83;21.00;;;;;;;3.93;87.61;101528.89;123426;1105;66037;-79
2021/03/04 01:17:39;;;;;;;41.47;19.17;;;;;;;3.91;87.92;101531.65;123462;1105;66117;-77
2021/03/04 01:20:12;;;;;;;38.57;17.27;;;;;;;3.90;87.21;101522.08;123445;1103;65081;-78
2021/03/04 01:22:38;;;;;;;67.27;29.43;;;;;;;3.92;87.06;101520.19;123519;1105;65715;-78
2021/03/04 01:25:07;;;;;;;69.30;28.13;;;;;;;3.94;87.43;101518.28;123416;1105;64963;-78
2021/03/04 01:27:34;;;;;;;51.30;22.13;;;;;;;3.96;87.76;101512.93;123271;1105;64979;-79
2021/03/04 01:30:01;;;;;;;44.70;19.00;;;;;;;3.97;86.95;101507.55;123387;1105;64898;-78
2021/03/04 01:32:27;;;;;;;44.30;19.70;;;;;;;3.97;87.06;101512.80;123426;1105;65097;-77
2021/03/04 01:34:54;;;;;;;71.37;29.23;;;;;;;3.98;87.88;101516.28;123354;1105;64921;-79
2021/03/04 01:37:20;;;;;;;61.88;26.17;;;;;;;3.97;86.55;101510.17;123498;1105;64899;-79
2021/03/04 01:39:46;;;;;;;43.47;18.37;;;;;;;3.98;87.62;101511.87;123485;1105;64902;-77
2021/03/04 01:42:12;;;;;;;60.07;23.97;;;;;;;3.97;86.50;101507.55;123378;1106;65455;-78
2021/03/04 01:44:38;;;;;;;45.37;18.67;;;;;;;3.94;86.87;101514.83;123432;1105;64854;-79
2021/03/04 01:47:06;;;;;;;63.20;25.67;;;;;;;3.92;86.29;101504.44;123454;1105;65052;-77
2021/03/04 01:49:33;;;;;;;58.50;24.35;;;;;;;3.88;87.79;101506.44;123424;1105;64924;-78
2021/03/04 01:51:59;;;;;;;61.28;26.33;;;;;;;3.88;87.24;101495.94;123315;1105;65424;-78
2021/03/04 01:54:26;;;;;;;64.57;21.83;;;;;;;3.89;86.73;101491.55;123363;1105;64943;-78
2021/03/04 01:56:53;;;;;;;61.23;23.73;;;;;;;3.89;87.67;101486.30;123192;1105;65382;-80
2021/03/04 01:59:22;;;;;;;67.23;28.37;;;;;;;3.90;87.32;101482.70;123442;1105;65221;-78
2021/03/04 02:01:49;;;;;;;66.37;24.87;;;;;;;3.90;87.48;101477.45;123457;1105;64764;-78
2021/03/04 02:04:16;;;;;;;68.90;28.10;;;;;;;3.89;87.48;101475.80;123431;1105;64956;-77
2021/03/04 02:07:02;;;;;;;73.07;29.37;;;;;;;3.86;86.70;101473.38;123442;1105;64929;-79
2021/03/04 02:09:31;;;;;;;71.53;30.07;;;;;;;3.81;87.28;101470.27;123411;1105;65017;-78
2021/03/04 02:12:27;;;;;;;72.63;30.80;;;;;;;3.76;87.18;101456.63;123424;1105;64991;-78
2021/03/04 02:14:58;;;;;;;55.57;23.90;;;;;;;3.74;87.74;101466.39;123432;1105;65332;-77
2021/03/04 02:17:29;;;;;;;43.97;17.43;;;;;;;3.68;86.83;101462.45;123363;1105;65722;-78
2021/03/04 02:20:00;;;;;;;72.80;30.60;;;;;;;3.63;87.14;101460.16;123474;1104;64927;-78
2021/03/04 02:22:46;;;;;;;56.80;22.00;;;;;;;3.60;87.03;101462.99;123445;1105;64863;-79
2021/03/04 02:25:18;;;;;;;54.10;20.33;;;;;;;3.59;87.46;101456.08;123440;1105;64895;-79
2021/03/04 02:27:49;;;;;;;68.67;26.83;;;;;;;3.57;87.89;101463.23;123428;1105;64889;-77
2021/03/04 02:30:19;;;;;;;73.00;25.33;;;;;;;3.55;87.57;101457.25;123348;1105;64933;-76
2021/03/04 02:32:52;;;;;;;60.23;22.17;;;;;;;3.54;87.49;101449.48;123422;1105;65194;-76
2021/03/04 02:35:28;;;;;;;61.80;25.83;;;;;;;3.50;86.50;101448.86;123413;1105;64956;-78
2021/03/04 02:37:59;;;;;;;73.67;30.60;;;;;;;3.46;86.31;101453.51;123466;1105;64931;-78
2021/03/04 02:40:27;;;;;;;39.30;15.67;;;;;;;3.46;86.50;101453.51;123402;1105;64979;-79
2021/03/04 02:42:55;;;;;;;72.90;24.90;;;;;;;3.42;87.26;101445.94;124226;1105;64902;-77
2021/03/04 02:45:24;;;;;;;64.80;25.60;;;;;;;3.39;86.48;101451.42;123376;1105;65707;-77
2021/03/04 02:47:51;;;;;;;35.80;16.27;;;;;;;3.34;86.49;101459.63;123629;1105;65672;-78
2021/03/04 02:50:20;;;;;;;67.27;28.77;;;;;;;3.31;86.75;101448.50;123253;1105;64895;-77
2021/03/04 02:52:48;;;;;;;46.77;20.70;;;;;;;3.28;87.76;101446.11;123444;1105;64933;-77
2021/03/04 02:55:15;;;;;;;39.93;16.30;;;;;;;3.25;86.90;101437.52;123361;1105;65055;-77
2021/03/04 02:57:46;;;;;;;82.80;31.15;;;;;;;3.23;87.51;101431.55;124272;1105;64888;-79
2021/03/04 03:00:16;;;;;;;36.00;12.50;;;;;;;3.23;86.61;101428.92;124671;1105;64994;-79
2021/03/04 03:02:44;;;;;;;74.57;28.17;;;;;;;3.23;87.48;101431.55;123526;1104;65065;-80
2021/03/04 03:05:14;;;;;;;53.20;18.83;;;;;;;3.22;87.17;101429.85;123528;1105;64866;-80
2021/03/04 03:07:42;;;;;;;78.30;29.73;;;;;;;3.20;86.62;101431.74;123794;1105;65070;-81
2021/03/04 03:10:10;;;;;;;55.47;22.67;;;;;;;3.18;87.24;101427.56;123423;1105;64906;-81
2021/03/04 03:12:40;;;;;;;39.67;14.73;;;;;;;3.15;87.03;101426.00;123456;1105;65201;-79
2021/03/04 03:15:25;;;;;;;78.40;29.23;;;;;;;3.10;87.29;101420.23;123332;1106;64921;-78
2021/03/04 03:17:53;;;;;;;54.70;19.73;;;;;;;3.06;87.72;101424.04;123477;1105;64908;-80
2021/03/04 03:20:21;;;;;;;56.97;22.00;;;;;;;3.01;87.88;101416.47;123428;1105;64905;-78
2021/03/04 03:22:50;;;;;;;66.83;24.87;;;;;;;2.97;87.64;101422.05;123619;1105;64898;-81
2021/03/04 03:25:16;;;;;;;52.90;17.97;;;;;;;2.89;87.85;101416.50;123555;1105;65028;-79
2021/03/04 03:27:44;;;;;;;45.47;19.13;;;;;;;2.81;87.49;101402.16;123492;1105;65295;-80
2021/03/04 03:30:17;;;;;;;76.23;24.43;;;;;;;2.75;87.06;101407.83;123434;1105;65675;-79
2021/03/04 03:32:56;;;;;;;66.60;22.25;;;;;;;2.72;87.16;101405.44;123613;1105;64917;-78
2021/03/04 03:35:25;;;;;;;68.47;26.20;;;;;;;2.67;87.94;101402.28;123595;1105;65313;-79
2021/03/04 03:37:54;;;;;;;56.63;21.93;;;;;;;2.61;88.34;101393.08;123694;1105;64921;-82
2021/03/04 03:40:23;;;;;;;73.00;26.47;;;;;;;2.54;87.70;101401.45;123542;1105;64975;-78
2021/03/04 03:42:50;;;;;;;69.67;21.90;;;;;;;2.51;88.11;101407.75;123546;1105;64971;-79
2021/03/04 03:45:19;;;;;;;69.75;24.75;;;;;;;2.44;88.32;101409.09;123519;1103;64857;-78
2021/03/04 03:47:47;;;;;;;81.70;27.60;;;;;;;2.40;88.22;101416.34;123627;1104;64997;-80
2021/03/04 03:50:22;;;;;;;90.92;28.77;;;;;;;2.37;88.71;101411.30;123446;1105;65125;-78
2021/03/04 03:52:51;;;;;;;81.33;27.80;;;;;;;2.35;88.51;101407.94;123460;1105;65647;-78
2021/03/04 03:55:17;;;;;;;50.43;18.43;;;;;;;2.33;88.32;101411.61;124204;1105;65032;-77
2021/03/04 03:57:45;;;;;;;65.95;21.40;;;;;;;2.30;89.25;101417.06;123455;1105;64918;-79
2021/03/04 04:00:13;;;;;;;48.30;18.57;;;;;;;2.29;89.04;101412.76;123611;1105;64930;-79
2021/03/04 04:02:40;;;;;;;71.90;25.13;;;;;;;2.26;88.87;101411.19;123533;1105;65001;-79
2021/03/04 04:05:07;;;;;;;52.93;19.37;;;;;;;2.25;88.70;101412.11;123433;1105;64985;-78
2021/03/04 04:07:33;;;;;;;79.67;26.60;;;;;;;2.24;88.49;101405.22;123425;1105;65831;-80
2021/03/04 04:10:03;;;;;;;42.13;14.07;;;;;;;2.22;88.84;101401.86;123399;1105;65072;-80
2021/03/04 04:12:29;;;;;;;51.30;19.83;;;;;;;2.20;89.23;101388.04;123454;1105;65842;-80
2021/03/04 04:14:55;;;;;;;46.80;14.60;;;;;;;2.18;89.13;101389.92;123417;1105;64947;-80
2021/03/04 04:17:22;;;;;;;34.03;12.30;;;;;;;2.20;88.71;101385.42;123530;1106;64942;-80
2021/03/04 04:19:49;;;;;;;81.10;26.90;;;;;;;2.19;89.34;101384.59;123527;1105;65088;-79
2021/03/04 04:22:17;;;;;;;71.17;25.20;;;;;;;2.21;88.62;101397.55;123563;1105;64907;-81
2021/03/04 04:24:44;;;;;;;51.73;16.63;;;;;;;2.21;88.82;101400.17;123483;1105;64962;-80
2021/03/04 04:27:12;;;;;;;58.83;20.43;;;;;;;2.21;88.94;101394.94;123457;1105;64899;-80
2021/03/04 04:29:39;;;;;;;42.20;15.80;;;;;;;2.21;88.76;101394.94;123457;1105;65029;-77
2021/03/04 04:32:05;;;;;;;51.00;16.10;;;;;;;2.19;89.44;101387.20;123393;1105;65181;-80
2021/03/04 04:34:32;;;;;;;51.90;18.17;;;;;;;2.19;89.10;101379.36;123439;1105;64962;-79
2021/03/04 04:36:58;;;;;;;70.40;27.15;;;;;;;2.21;89.12;101387.08;123283;1106;64985;-77
2021/03/04 04:39:24;;;;;;;64.75;22.10;;;;;;;2.20;89.20;101378.40;123378;1105;65001;-78
2021/03/04 04:41:51;;;;;;;45.60;18.13;;;;;;;2.20;89.19;101372.33;123413;1106;65359;-79
2021/03/04 04:44:17;;;;;;;48.25;17.45;;;;;;;2.21;89.08;101360.91;123423;1106;65246;-79
2021/03/04 04:46:43;;;;;;;58.60;22.37;;;;;;;2.21;88.78;101374.86;123393;1105;64950;-77
2021/03/04 04:49:10;;;;;;;61.27;22.20;;;;;;;2.23;88.56;101361.64;123470;1105;64927;-78
2021/03/04 04:51:36;;;;;;;70.07;24.43;;;;;;;2.24;88.64;101363.33;123457;1105;64902;-77
2021/03/04 04:54:02;;;;;;;63.53;22.93;;;;;;;2.23;88.68;101366.88;123420;1105;65382;-77
2021/03/04 04:56:28;;;;;;;44.03;17.43;;;;;;;2.19;88.70;101375.87;123415;1105;64911;-79
2021/03/04 04:58:55;;;;;;;43.90;13.37;;;;;;;2.12;89.08;101364.98;123204;1105;65356;-77
2021/03/04 05:01:21;;;;;;;56.57;20.27;;;;;;;2.06;89.15;101367.19;123404;1105;64902;-78
2021/03/04 05:03:48;;;;;;;45.27;16.73;;;;;;;2.03;88.65;101366.45;123482;1105;64904;-79
2021/03/04 05:06:15;;;;;;;52.33;19.13;;;;;;;1.99;89.12;101354.51;123400;1105;64895;-78
2021/03/04 05:08:41;;;;;;;32.85;11.38;;;;;;;1.98;89.19;101358.08;123472;1105;64901;-77
2021/03/04 05:11:07;;;;;;;54.73;16.77;;;;;;;1.95;89.29;101363.50;123321;1105;65473;-77
2021/03/04 05:13:33;;;;;;;50.78;19.40;;;;;;;1.93;88.85;101354.92;123419;1105;65080;-80
2021/03/04 05:15:59;;;;;;;54.17;20.77;;;;;;;1.91;89.24;101367.27;123456;1105;64946;-78
2021/03/04 05:18:26;;;;;;;58.40;20.00;;;;;;;1.87;89.56;101360.59;123333;1105;64924;-78
2021/03/04 05:20:52;;;;;;;55.80;18.60;;;;;;;1.86;89.75;101351.05;123383;1105;65358;-78
2021/03/04 05:23:19;;;;;;;29.30;10.40;;;;;;;1.83;90.28;101352.09;123452;1105;64898;-77
2021/03/04 05:25:45;;;;;;;46.13;16.40;;;;;;;1.83;89.78;101340.80;123458;1105;65013;-78
2021/03/04 05:28:13;;;;;;;53.70;17.53;;;;;;;1.80;90.16;101339.20;123455;1105;64924;-78
2021/03/04 05:30:40;;;;;;;38.97;11.53;;;;;;;1.80;89.88;101338.37;123463;1105;65077;-78
2021/03/04 05:33:07;;;;;;;39.53;12.17;;;;;;;1.77;90.17;101333.36;123341;1105;64959;-77
2021/03/04 05:35:33;;;;;;;25.00;8.80;;;;;;;1.76;90.32;101336.90;123434;1105;64926;-77
2021/03/04 05:38:00;;;;;;;68.53;22.97;;;;;;;1.72;90.47;101338.91;123359;1105;64898;-78
2021/03/04 05:40:27;;;;;;;51.77;16.47;;;;;;;1.69;90.71;101326.02;123237;1105;65714;-79
2021/03/04 05:42:56;;;;;;;60.07;19.97;;;;;;;1.68;90.67;101337.42;123427;1105;64978;-78
2021/03/04 05:45:24;;;;;;;66.20;20.45;;;;;;;1.70;90.44;101332.07;123539;1105;65664;-77
2021/03/04 05:47:52;;;;;;;72.23;22.37;;;;;;;1.73;90.29;101317.02;123520;1105;65019;-78
2021/03/04 05:50:21;;;;;;;61.17;21.17;;;;;;;1.77;89.97;101320.28;123497;1105;65708;-77
2021/03/04 05:52:59;;;;;;;49.43;15.87;;;;;;;1.80;90.20;101314.83;123418;1104;65684;-77
2021/03/04 05:55:26;;;;;;;32.63;11.67;;;;;;;1.78;90.42;101307.08;123380;1105;64924;-77
2021/03/04 05:57:57;;;;;;;45.97;16.03;;;;;;;1.77;90.07;101312.44;123483;1105;65892;-77
2021/03/04 06:00:24;;;;;;;64.87;19.50;;;;;;;1.77;90.24;101318.50;123385;1104;65123;-76
2021/03/04 06:02:51;;;;;;;75.73;23.50;;;;;;;1.79;90.28;101319.23;123370;1105;65697;-77
2021/03/04 06:05:18;;;;;;;59.37;17.50;;;;;;;1.80;90.72;101322.67;123500;1105;64895;-77
2021/03/04 06:07:45;;;;;;;66.37;20.50;;;;;;;1.80;90.59;101318.27;123439;1105;64984;-79
2021/03/04 06:10:13;;;;;;;96.10;26.87;;;;;;;1.81;90.54;101325.20;123475;1106;64940;-76
2021/03/04 06:12:40;;;;;;;52.23;16.40;;;;;;;1.84;90.62;101324.15;123429;1105;64901;-77
2021/03/04 06:15:08;;;;;;;76.17;24.77;;;;;;;1.84;90.58;101330.21;123314;1105;64912;-76
2021/03/04 06:17:34;;;;;;;37.73;12.97;;;;;;;1.86;90.75;101335.35;123403;1105;64934;-81
2021/03/04 06:20:04;;;;;;;52.50;16.33;;;;;;;1.86;90.91;101337.97;123385;1105;65717;-75
2021/03/04 06:22:32;;;;;;;82.13;22.83;;;;;;;1.91;89.94;101325.41;123527;1105;64895;-76
2021/03/04 06:25:04;;;;;;;63.40;20.17;;;;;;;1.93;89.87;101320.91;123746;1105;64930;-76
2021/03/04 06:27:33;;;;;;;33.50;11.53;;;;;;;1.95;89.87;101315.58;123485;1105;65182;-81
2021/03/04 06:30:08;;;;;;;59.53;19.70;;;;;;;1.98;90.14;101321.45;123477;1105;64905;-79
2021/03/04 06:32:36;;;;;;;34.63;9.63;;;;;;;1.99;89.46;101312.64;123510;1105;64847;-79
2021/03/04 06:35:11;;;;;;;38.20;11.07;;;;;;;1.97;89.41;101313.70;123419;1105;64989;-80
2021/03/04 06:37:41;;;;;;;43.70;14.95;;;;;;;1.96;89.55;101315.48;123551;1105;64927;-80
2021/03/04 06:40:16;;;;;;;24.83;8.30;;;;;;;1.99;89.16;101322.28;123474;1105;64927;-75
2021/03/04 06:42:43;;;;;;;55.03;16.50;;;;;;;1.97;89.14;101318.92;123369;1105;64886;-75
2021/03/04 06:45:35;;;;;;;54.80;17.00;;;;;;;1.94;89.35;101321.77;123276;1105;65430;-79
2021/03/04 06:48:05;;;;;;;62.27;20.07;;;;;;;1.91;89.71;101312.32;123374;1105;64914;-75
2021/03/04 06:50:32;;;;;;;28.83;8.57;;;;;;;1.89;89.42;101326.45;123377;1104;64901;-74
2021/03/04 06:52:58;;;;;;;67.17;20.83;;;;;;;1.86;89.49;101319.66;123380;1105;65052;-74
2021/03/04 06:55:24;;;;;;;33.45;10.15;;;;;;;1.88;89.38;101328.23;123387;1105;64898;-75
2021/03/04 06:57:58;;;;;;;54.57;14.37;;;;;;;1.87;89.65;101329.20;123352;1105;65868;-73
2021/03/04 07:00:25;;;;;;;46.77;15.53;;;;;;;1.88;89.86;101323.00;123433;1105;64966;-76
2021/03/04 07:02:57;;;;;;;58.73;17.13;;;;;;;1.90;89.30;101313.27;123389;1105;64925;-82
2021/03/04 07:05:26;;;;;;;56.00;15.83;;;;;;;1.87;89.34;101323.96;124639;1105;65033;-83
2021/03/04 07:07:55;;;;;;;28.80;7.37;;;;;;;1.84;89.50;101324.15;123775;1106;66059;-82
2021/03/04 07:10:27;;;;;;;53.33;13.93;;;;;;;1.83;89.43;101312.86;123479;1105;64924;-82
2021/03/04 07:12:53;;;;;;;60.73;17.17;;;;;;;1.81;89.23;101313.91;123601;1105;64971;-81
2021/03/04 07:15:20;;;;;;;51.33;16.50;;;;;;;1.80;89.37;101307.81;123477;1105;65413;-81
2021/03/04 07:17:49;;;;;;;54.17;17.97;;;;;;;1.81;89.95;101299.04;123527;1105;64924;-80
2021/03/04 07:20:21;;;;;;;27.33;8.53;;;;;;;1.85;89.74;101304.91;123663;1105;64902;-81
2021/03/04 07:23:05;;;;;;;36.23;11.80;;;;;;;1.85;89.63;101307.53;123543;1105;65068;-82
2021/03/04 07:25:32;;;;;;;41.73;14.30;;;;;;;1.83;89.55;101312.02;123489;1105;64902;-80
2021/03/04 07:28:00;;;;;;;39.47;11.10;;;;;;;1.83;89.88;101306.80;123593;1105;64882;-82
2021/03/04 07:30:26;;;;;;;47.05;14.65;;;;;;;1.85;89.57;101294.45;123578;1105;65902;-82
2021/03/04 07:32:52;;;;;;;51.53;15.83;;;;;;;1.90;89.84;101305.42;123439;1105;64943;-84
2021/03/04 07:35:20;;;;;;;41.53;13.03;;;;;;;1.91;89.45;101301.85;124148;1106;64876;-82
2021/03/04 07:37:49;;;;;;;39.80;12.07;;;;;;;1.93;89.67;101307.82;124155;1105;65115;-82
2021/03/04 07:40:15;;;;;;;27.45;10.30;;;;;;;1.92;89.63;101306.16;124355;1105;64894;-82
2021/03/04 07:42:42;;;;;;;20.33;7.50;;;;;;;1.88;89.23;101314.33;123735;1105;64985;-82
2021/03/04 07:45:17;;;;;;;25.12;8.28;;;;;;;1.86;89.53;101322.27;123741;1105;64982;-82
2021/03/04 07:47:44;;;;;;;17.57;6.43;;;;;;;1.83;89.25;101317.26;123760;1106;64924;-80
2021/03/04 07:50:15;;;;;;;25.87;8.60;;;;;;;1.84;88.97;101324.15;123648;1105;64987;-81
2021/03/04 07:52:42;;;;;;;36.13;10.63;;;;;;;1.84;89.33;101326.77;123663;1105;64905;-84
2021/03/04 07:55:14;;;;;;;37.37;9.37;;;;;;;1.86;89.13;101327.50;123624;1105;64943;-84
2021/03/04 07:57:44;;;;;;;34.37;10.77;;;;;;;1.85;88.57;101325.84;123635;1106;65013;-82
2021/03/04 08:00:12;;;;;;;29.00;9.97;;;;;;;1.80;88.55;101333.14;123727;1105;64921;-81
2021/03/04 08:02:39;;;;;;;28.97;9.73;;;;;;;1.76;88.56;101324.65;123802;1105;64931;-81
2021/03/04 08:05:09;;;;;;;30.97;9.87;;;;;;;1.77;88.50;101320.28;123945;1105;64908;-82
2021/03/04 08:07:45;;;;;;;27.27;9.33;;;;;;;1.75;88.46;101319.55;123643;1105;64969;-81
2021/03/04 08:10:20;;;;;;;24.57;9.30;;;;;;;1.74;88.73;101323.08;123727;1106;64860;-81
2021/03/04 08:12:47;;;;;;;41.10;12.85;;;;;;;1.75;88.14;101324.78;123684;1105;64956;-83
2021/03/04 08:15:15;;;;;;;33.90;11.57;;;;;;;1.75;88.31;101327.39;123679;1104;64946;-83
2021/03/04 08:17:41;;;;;;;23.53;7.87;;;;;;;1.73;88.00;101321.42;123441;1105;64892;-83
2021/03/04 08:20:15;;;;;;;24.83;8.20;;;;;;;1.74;88.22;101323.08;123533;1105;64959;-83
2021/03/04 08:22:50;;;;;;;25.95;8.25;;;;;;;1.74;87.63;101317.85;123660;1105;64917;-83
2021/03/04 08:25:25;;;;;;;25.57;8.27;;;;;;;1.74;88.42;101316.09;123655;1106;64943;-83
2021/03/04 08:27:54;;;;;;;19.50;6.10;;;;;;;1.72;88.08;101320.59;123939;1105;64892;-83
2021/03/04 08:30:41;;;;;;;23.93;8.30;;;;;;;1.72;87.95;101319.73;123822;1105;64863;-83
2021/03/04 08:33:12;;;;;;;24.00;7.83;;;;;;;1.74;88.00;101310.87;123743;1105;66121;-84
2021/03/04 08:35:45;;;;;;;18.00;6.25;;;;;;;1.75;87.88;101303.84;123911;1106;64891;-83
2021/03/04 08:38:16;;;;;;;22.80;7.93;;;;;;;1.78;87.71;101301.02;123649;1105;64927;-81
2021/03/04 08:40:45;;;;;;;14.73;5.33;;;;;;;1.77;87.67;101301.97;123700;1105;64972;-80
2021/03/04 08:43:17;;;;;;;21.83;8.27;;;;;;;1.79;87.89;101285.22;123677;1105;64902;-81
2021/03/04 08:45:45;;;;;;;15.43;5.17;;;;;;;1.84;88.02;101282.30;123665;1105;65046;-82
2021/03/04 08:48:13;;;;;;;18.63;6.13;;;;;;;1.86;88.04;101275.18;123694;1105;64841;-82
2021/03/04 08:50:45;;;;;;;29.13;10.10;;;;;;;1.85;87.54;101270.91;123757;1105;64947;-84
2021/03/04 08:53:13;;;;;;;26.63;7.33;;;;;;;1.88;87.51;101265.45;123683;1105;64908;-82
2021/03/04 08:55:50;;;;;;;17.90;6.27;;;;;;;1.91;87.33;101270.45;123667;1105;64931;-84
2021/03/04 08:58:18;;;;;;;23.90;8.65;;;;;;;1.91;87.15;101261.78;123592;1105;65205;-84
2021/03/04 09:00:49;;;;;;;21.90;7.47;;;;;;;1.89;87.19;101256.67;123589;1105;65033;-81
2021/03/04 09:03:19;;;;;;;16.03;6.10;;;;;;;1.88;87.49;101262.83;123688;1105;64917;-83
2021/03/04 09:05:47;;;;;;;13.77;4.37;;;;;;;1.90;87.30;101255.72;123666;1105;64901;-82
2021/03/04 09:08:16;;;;;;;19.50;6.37;;;;;;;1.93;87.61;101252.88;123542;1105;65004;-85
2021/03/04 09:10:51;;;;;;;22.03;7.97;;;;;;;1.97;86.96;101256.95;123243;1105;64982;-84
2021/03/04 09:13:19;;;;;;;15.83;6.72;;;;;;;1.98;86.76;101263.88;125743;1105;65250;-81
2021/03/04 09:15:58;;;;;;;18.47;7.90;;;;;;;1.99;86.67;101265.55;123787;1105;64946;-82
2021/03/04 09:18:25;;;;;;;27.27;9.07;;;;;;;2.01;86.98;101258.42;123793;1106;65678;-83
2021/03/04 09:20:53;;;;;;;19.00;7.37;;;;;;;2.00;86.90;101261.17;123774;1105;64854;-82
2021/03/04 09:23:20;;;;;;;23.97;8.20;;;;;;;1.98;86.88;101263.88;123833;1105;64921;-81
2021/03/04 09:25:47;;;;;;;15.60;5.87;;;;;;;1.98;86.95;101263.88;123791;1105;65014;-81
2021/03/04 09:28:16;;;;;;;19.50;7.37;;;;;;;2.00;87.18;101272.47;123677;1105;66111;-82
2021/03/04 09:30:43;;;;;;;18.13;6.73;;;;;;;1.99;86.94;101268.16;123975;1106;64901;-79
2021/03/04 09:33:21;;;;;;;23.30;7.53;;;;;;;1.99;87.11;101273.39;124039;1105;65029;-81
2021/03/04 09:35:56;;;;;;;12.73;4.63;;;;;;;2.04;86.97;101267.87;123636;1105;65159;-81
2021/03/04 09:38:24;;;;;;;17.35;6.10;;;;;;;2.14;86.98;101268.05;123776;1105;65035;-79
2021/03/04 09:41:17;;;;;;;16.77;6.20;;;;;;;2.19;87.42;101276.41;123735;1105;64879;-85
2021/03/04 09:44:03;;;;;;;15.70;4.97;;;;;;;2.25;87.35;101275.98;123829;1105;65006;-85
2021/03/04 09:46:42;;;;;;;20.83;5.87;;;;;;;2.33;86.46;101271.06;123622;1105;65084;-83
2021/03/04 09:49:09;;;;;;;24.93;9.07;;;;;;;2.40;86.40;101261.84;123695;1105;64903;-85
2021/03/04 09:51:38;;;;;;;22.93;8.33;;;;;;;2.47;87.08;101264.04;123771;1105;64860;-85
2021/03/04 09:54:05;;;;;;;14.33;5.17;;;;;;;2.51;86.28;101273.33;123743;1105;64921;-85
2021/03/04 09:57:05;;;;;;;22.80;8.77;;;;;;;2.55;86.77;101259.06;123511;1105;64927;-83
2021/03/04 09:59:31;;;;;;;12.13;4.90;;;;;;;2.58;85.42;101256.25;123642;1105;64930;-84
2021/03/04 10:01:58;;;;;;;18.57;7.23;;;;;;;2.62;85.91;101262.95;123726;1105;65055;-83
2021/03/04 10:04:26;;;;;;;23.77;9.43;;;;;;;2.62;85.45;101255.91;123584;1105;64911;-83
2021/03/04 10:06:52;;;;;;;16.57;6.53;;;;;;;2.59;84.92;101260.53;123567;1104;64966;-83
2021/03/04 10:09:26;;;;;;;23.07;8.07;;;;;;;2.53;86.00;101256.58;123671;1105;64789;-86
2021/03/04 10:11:53;;;;;;;15.50;5.97;;;;;;;2.50;85.96;101263.81;123792;1105;64962;-85
2021/03/04 10:14:19;;;;;;;19.47;6.57;;;;;;;2.45;85.95;101274.61;123924;1105;64895;-84
2021/03/04 10:16:55;;;;;;;17.00;5.35;;;;;;;2.47;86.35;101275.34;123767;1105;64914;-84
2021/03/04 10:19:23;;;;;;;21.83;8.50;;;;;;;2.48;86.69;101277.00;123579;1105;64895;-84
2021/03/04 10:21:52;;;;;;;21.63;7.47;;;;;;;2.45;86.88;101282.47;123768;1105;65582;-84
2021/03/04 10:24:19;;;;;;;10.90;4.75;;;;;;;2.45;86.61;101291.16;123694;1105;64921;-84
2021/03/04 10:26:45;;;;;;;20.50;8.05;;;;;;;2.53;86.88;101285.39;123635;1105;65007;-84
2021/03/04 10:29:11;;;;;;;16.47;6.13;;;;;;;2.53;87.33;101279.29;123617;1105;64926;-85
2021/03/04 10:31:37;;;;;;;14.37;5.57;;;;;;;2.54;86.64;101278.36;123499;1105;64918;-85
2021/03/04 10:34:04;;;;;;;16.20;4.90;;;;;;;2.56;87.27;101289.57;123888;1105;64904;-86
2021/03/04 10:36:30;;;;;;;16.50;6.50;;;;;;;2.59;87.21;101284.96;123710;1105;64956;-84
2021/03/04 10:38:56;;;;;;;16.87;5.50;;;;;;;2.54;86.91;101284.43;123662;1105;64946;-85
2021/03/04 10:41:22;;;;;;;11.20;4.30;;;;;;;2.51;87.28;101286.42;123595;1106;64985;-85
2021/03/04 10:43:48;;;;;;;11.87;4.93;;;;;;;2.45;88.12;101290.33;123639;1105;64905;-85
2021/03/04 10:46:14;;;;;;;17.87;6.43;;;;;;;2.38;87.54;101287.30;123635;1105;65000;-85
2021/03/04 10:48:41;;;;;;;22.73;7.77;;;;;;;2.36;87.98;101277.86;123816;1105;65028;-84
2021/03/04 10:51:07;;;;;;;19.90;6.83;;;;;;;2.31;87.90;101279.97;123633;1105;65285;-85
2021/03/04 10:53:33;;;;;;;17.77;7.35;;;;;;;2.27;87.91;101283.74;123558;1105;65369;-83
2021/03/04 10:56:01;;;;;;;17.10;5.50;;;;;;;2.26;87.88;101276.85;123679;1105;64944;-83
2021/03/04 10:58:28;;;;;;;20.43;7.63;;;;;;;2.25;87.96;101275.98;123634;1105;65292;-84
2021/03/04 11:00:57;;;;;;;17.07;5.27;;;;;;;2.26;88.97;101269.83;123630;1105;65013;-83
2021/03/04 11:03:23;;;;;;;28.83;9.83;;;;;;;2.26;88.61;101272.45;123565;1105;65052;-84
2021/03/04 11:05:50;;;;;;;20.93;6.93;;;;;;;2.24;88.53;101280.39;123760;1105;64914;-85
2021/03/04 11:08:16;;;;;;;22.87;6.57;;;;;;;2.23;88.56;101277.87;123713;1105;65113;-84
2021/03/04 11:10:42;;;;;;;15.07;6.33;;;;;;;2.20;88.90;101293.80;123515;1105;64969;-84
2021/03/04 11:13:08;;;;;;;18.95;6.78;;;;;;;2.16;89.19;101287.11;123484;1105;65856;-84
2021/03/04 11:15:34;;;;;;;25.47;9.10;;;;;;;2.18;89.36;101286.05;123613;1105;65509;-83
2021/03/04 11:18:01;;;;;;;15.77;6.70;;;;;;;2.17;89.01;101288.80;123657;1105;64922;-84
2021/03/04 11:20:27;;;;;;;9.50;3.93;;;;;;;2.21;89.30;101285.00;123712;1105;64854;-85